Time;durP1;ratioP1;P1;durP2;ratioP2;P2;SDS_P1;SDS_P2;PMS_P1;PMS_P2;Temp;Humidity;BMP_temperature;BMP_pressure;BME280_temperature;BME280_humidity;BME280_pressure;Samples;Min_cycle;Max_cycle;Signal;HPM_P1;HPM_P2
2023/12/01 15:55:26;;;;;;;21.67;13.60;;;;;;;-0.25;100.00;100725.22;5305387;27;20360;-71
2023/12/01 15:57:57;;;;;;;23.07;14.97;;;;;;;-0.21;100.00;100729.44;5295185;28;20025;-72
2023/12/01 16:00:28;;;;;;;27.80;14.37;;;;;;;-0.11;100.00;100737.88;5288340;28;20029;-72
2023/12/01 16:03:00;;;;;;;25.60;14.57;;;;;;;-0.03;100.00;100736.00;5290157;28;20083;-68
2023/12/01 16:05:31;;;;;;;26.50;16.40;;;;;;;-0.07;100.00;100736.94;5285979;28;20163;-69
2023/12/01 16:08:02;;;;;;;24.20;15.27;;;;;;;0.04;100.00;100735.88;5278892;28;20040;-64
2023/12/01 16:10:34;;;;;;;25.60;15.30;;;;;;;0.06;100.00;100734.16;5286533;28;20023;-69
2023/12/01 16:13:06;;;;;;;24.60;14.93;;;;;;;0.03;100.00;100731.63;5286950;28;20032;-66
2023/12/01 16:15:37;;;;;;;26.57;14.87;;;;;;;0.04;100.00;100741.03;5265870;28;20074;-69
2023/12/01 16:18:09;;;;;;;21.93;14.23;;;;;;;-0.04;100.00;100738.63;5280687;28;20502;-74
2023/12/01 16:20:41;;;;;;;21.50;13.63;;;;;;;-0.11;100.00;100745.59;5278958;28;20025;-72
2023/12/01 16:23:12;;;;;;;27.67;16.20;;;;;;;0.08;100.00;100747.84;5276158;28;20626;-72
2023/12/01 16:25:45;;;;;;;24.97;14.73;;;;;;;-0.10;100.00;100749.00;5279536;28;20040;-73
2023/12/01 16:28:17;;;;;;;21.50;13.23;;;;;;;-0.03;100.00;100756.59;5276007;28;20040;-73
2023/12/01 16:30:48;;;;;;;22.43;14.73;;;;;;;-0.17;100.00;100755.97;5276578;28;20024;-72
2023/12/01 16:33:20;;;;;;;22.70;13.03;;;;;;;-0.15;100.00;100756.81;5273647;28;20024;-73
2023/12/01 16:35:51;;;;;;;22.30;13.80;;;;;;;-0.05;100.00;100755.78;5278208;28;20021;-83
2023/12/01 16:38:22;;;;;;;22.93;14.33;;;;;;;-0.07;100.00;100764.41;5274357;28;20025;-76
2023/12/01 16:40:54;;;;;;;25.10;14.37;;;;;;;0.19;100.00;100760.53;5273699;28;20046;-75
2023/12/01 16:43:25;;;;;;;21.20;13.70;;;;;;;0.04;100.00;100766.78;5281176;28;20029;-73
2023/12/01 16:45:56;;;;;;;21.60;13.53;;;;;;;0.07;100.00;100756.47;5288778;28;20043;-81
2023/12/01 16:48:27;;;;;;;23.67;14.13;;;;;;;0.04;100.00;100767.66;5281522;28;20530;-76
2023/12/01 16:50:59;;;;;;;23.17;13.63;;;;;;;0.09;100.00;100772.72;5289395;28;20476;-71
2023/12/01 16:53:30;;;;;;;23.17;13.90;;;;;;;-0.02;100.00;100773.75;5286421;28;20136;-76
2023/12/01 16:56:01;;;;;;;20.33;13.40;;;;;;;-0.10;100.00;100770.47;5283932;28;20012;-77
2023/12/01 16:58:33;;;;;;;23.10;13.30;;;;;;;-0.33;100.00;100769.09;5284350;28;20109;-78
2023/12/01 17:01:04;;;;;;;21.20;13.93;;;;;;;-0.30;100.00;100779.38;5282022;28;20036;-83
2023/12/01 17:03:35;;;;;;;24.93;15.57;;;;;;;-0.36;100.00;100776.88;5286513;28;20050;-76
2023/12/01 17:06:07;;;;;;;20.97;12.73;;;;;;;-0.37;100.00;100783.72;5279205;28;20036;-79
2023/12/01 17:08:38;;;;;;;21.67;14.07;;;;;;;-0.30;100.00;100783.66;5275212;28;20101;-78
2023/12/01 17:11:10;;;;;;;23.73;13.83;;;;;;;-0.23;100.00;100780.13;5266302;28;20480;-75
2023/12/01 17:13:43;;;;;;;24.17;14.60;;;;;;;-0.46;100.00;100783.03;5274561;28;20036;-75
2023/12/01 17:16:15;;;;;;;19.63;12.73;;;;;;;-0.58;100.00;100769.47;5272248;28;20029;-77
2023/12/01 17:18:46;;;;;;;21.00;13.30;;;;;;;-0.52;100.00;100781.38;5264057;28;20596;-74
2023/12/01 17:21:17;;;;;;;22.37;14.83;;;;;;;-0.44;100.00;100792.44;5274596;28;20024;-73
2023/12/01 17:23:49;;;;;;;24.93;13.67;;;;;;;-0.43;100.00;100793.25;5273010;28;20070;-73
2023/12/01 17:26:20;;;;;;;26.17;15.37;;;;;;;-0.48;100.00;100798.50;5271992;28;20092;-72
2023/12/01 17:28:51;;;;;;;20.63;13.60;;;;;;;-0.57;100.00;100789.19;5244576;28;20033;-73
2023/12/01 17:31:23;;;;;;;24.73;14.30;;;;;;;-0.54;100.00;100790.88;5234873;28;20028;-72
2023/12/01 17:33:55;;;;;;;23.53;14.63;;;;;;;-0.45;100.00;100779.56;5272983;28;20123;-73
2023/12/01 17:36:27;;;;;;;22.43;13.67;;;;;;;-0.28;100.00;100790.47;5268097;28;20095;-73
2023/12/01 17:38:58;;;;;;;23.77;14.73;;;;;;;-0.34;100.00;100795.72;5273459;28;20523;-72
2023/12/01 17:41:29;;;;;;;24.50;13.27;;;;;;;-0.44;100.00;100778.72;5272110;28;20774;-72
2023/12/01 17:44:01;;;;;;;21.70;13.53;;;;;;;-0.26;100.00;100791.28;5268555;28;20077;-72
2023/12/01 17:46:32;;;;;;;23.17;14.27;;;;;;;-0.14;100.00;100799.72;5264651;28;20024;-75
2023/12/01 17:49:04;;;;;;;23.80;14.87;;;;;;;-0.28;100.00;100800.75;5276640;28;20387;-73
2023/12/01 17:51:35;;;;;;;23.90;14.23;;;;;;;-0.40;100.00;100793.25;5271289;28;20021;-71
2023/12/01 17:54:06;;;;;;;23.23;14.20;;;;;;;-0.29;100.00;100796.50;5276091;28;20057;-72
2023/12/01 17:56:38;;;;;;;20.67;13.30;;;;;;;-0.33;100.00;100810.28;5273699;28;20025;-72
2023/12/01 17:59:09;;;;;;;22.60;14.63;;;;;;;-0.49;100.00;100805.34;5266432;28;20035;-74
2023/12/01 18:01:40;;;;;;;21.57;13.03;;;;;;;-0.54;100.00;100796.84;5275056;28;20522;-72
2023/12/01 18:04:12;;;;;;;23.77;13.57;;;;;;;-0.28;100.00;100813.63;5248386;28;20127;-73
2023/12/01 18:06:43;;;;;;;23.07;15.03;;;;;;;-0.27;100.00;100812.78;5256423;28;20430;-71
2023/12/01 18:09:14;;;;;;;24.30;13.53;;;;;;;-0.41;100.00;100806.97;5270034;28;20406;-72
2023/12/01 18:11:45;;;;;;;22.60;13.97;;;;;;;-0.39;100.00;100820.66;5266888;28;20074;-72
2023/12/01 18:14:17;;;;;;;22.43;13.20;;;;;;;-0.44;100.00;100807.00;5268145;28;20028;-72
2023/12/01 18:16:49;;;;;;;23.03;13.50;;;;;;;-0.45;100.00;100816.44;5269226;28;20039;-73
2023/12/01 18:19:20;;;;;;;24.00;14.13;;;;;;;-0.54;100.00;100812.28;5268090;28;21552;-72
2023/12/01 18:21:51;;;;;;;36.10;20.07;;;;;;;-0.54;100.00;100803.72;5268940;28;20036;-73
2023/12/01 18:24:22;;;;;;;29.13;17.47;;;;;;;-0.65;100.00;100816.75;5269048;28;20050;-73
2023/12/01 18:26:54;;;;;;;37.10;22.67;;;;;;;-0.49;100.00;100828.50;5265430;28;20580;-73
2023/12/01 18:29:26;;;;;;;22.97;13.93;;;;;;;-0.46;100.00;100819.06;5269269;28;20039;-72
2023/12/01 18:31:57;;;;;;;22.70;15.13;;;;;;;-0.55;100.00;100807.16;5265994;28;20064;-72
2023/12/01 18:34:28;;;;;;;23.27;13.67;;;;;;;-0.61;100.00;100810.66;5187313;28;20125;-71
2023/12/01 18:36:59;;;;;;;21.97;14.63;;;;;;;-0.52;100.00;100817.41;5254462;28;20048;-72
2023/12/01 18:39:31;;;;;;;23.10;14.77;;;;;;;-0.59;100.00;100819.22;5264979;28;20032;-70
2023/12/01 18:42:02;;;;;;;22.83;14.37;;;;;;;-0.46;100.00;100822.47;5262001;28;20029;-70
2023/12/01 18:44:34;;;;;;;22.27;14.60;;;;;;;-0.57;100.00;100822.63;5267379;28;20031;-71
2023/12/01 18:47:05;;;;;;;25.17;15.93;;;;;;;-0.55;100.00;100826.03;5266319;28;20080;-70
2023/12/01 18:49:36;;;;;;;24.63;15.53;;;;;;;-0.53;100.00;100826.00;5266743;28;20025;-70
2023/12/01 18:52:08;;;;;;;22.80;14.03;;;;;;;-0.60;100.00;100825.25;5265712;28;20071;-70
2023/12/01 18:54:39;;;;;;;23.37;14.20;;;;;;;-0.64;100.00;100828.72;5260495;28;20037;-70
2023/12/01 18:57:10;;;;;;;26.87;15.53;;;;;;;-0.86;100.00;100826.44;5266628;28;20067;-70
2023/12/01 18:59:42;;;;;;;25.53;16.47;;;;;;;-0.95;100.00;100836.81;5263494;28;20541;-70
2023/12/01 19:02:13;;;;;;;22.63;14.80;;;;;;;-0.96;100.00;100830.81;5269515;28;20387;-70
2023/12/01 19:04:45;;;;;;;28.47;16.17;;;;;;;-1.10;100.00;100828.44;5267577;28;20035;-70
2023/12/01 19:07:16;;;;;;;22.83;14.77;;;;;;;-1.05;100.00;100839.50;5266725;28;20033;-70
2023/12/01 19:09:47;;;;;;;25.53;15.67;;;;;;;-1.01;100.00;100841.16;5267332;28;20120;-70
2023/12/01 19:12:19;;;;;;;25.03;15.60;;;;;;;-1.12;100.00;100836.13;5266318;28;20090;-70
2023/12/01 19:14:51;;;;;;;25.63;16.73;;;;;;;-1.04;100.00;100848.06;5266513;28;20035;-71
2023/12/01 19:17:23;;;;;;;24.87;16.80;;;;;;;-1.01;100.00;100848.00;5264861;28;20123;-70
2023/12/01 19:19:54;;;;;;;28.07;18.27;;;;;;;-1.01;100.00;100854.00;5269206;28;20112;-70
2023/12/01 19:22:25;;;;;;;25.77;17.60;;;;;;;-1.02;100.00;100841.19;5268237;28;20036;-71
2023/12/01 19:24:57;;;;;;;22.30;14.10;;;;;;;-0.96;100.00;100855.69;5261352;28;20040;-70
2023/12/01 19:27:28;;;;;;;22.70;15.33;;;;;;;-0.95;100.00;100862.53;5266805;28;20046;-71
2023/12/01 19:29:59;;;;;;;22.97;14.50;;;;;;;-0.95;100.00;100858.25;5264673;28;20028;-70
2023/12/01 19:32:31;;;;;;;23.67;15.83;;;;;;;-0.93;100.00;100859.09;5265063;28;20102;-70
2023/12/01 19:35:02;;;;;;;25.83;16.40;;;;;;;-0.97;100.00;100859.97;5267447;28;20032;-70
2023/12/01 19:37:33;;;;;;;23.33;14.97;;;;;;;-0.94;100.00;100859.09;5267447;28;20028;-70
2023/12/01 19:40:06;;;;;;;25.63;15.77;;;;;;;-0.89;100.00;100860.72;5266159;28;20032;-70
2023/12/01 19:42:37;;;;;;;23.50;16.50;;;;;;;-0.93;100.00;100856.50;5266118;28;20086;-70
2023/12/01 19:45:09;;;;;;;25.83;17.17;;;;;;;-1.02;100.00;100866.91;5267163;28;20044;-70
2023/12/01 19:47:40;;;;;;;27.73;17.67;;;;;;;-0.99;100.00;100870.28;5267740;28;20028;-70
2023/12/01 19:50:12;;;;;;;25.77;17.03;;;;;;;-1.01;100.00;100863.44;5265427;28;20051;-70
2023/12/01 19:52:43;;;;;;;28.83;18.30;;;;;;;-0.94;100.00;100866.81;5265707;28;20035;-70
2023/12/01 19:55:14;;;;;;;29.07;18.13;;;;;;;-0.90;100.00;100865.91;5264399;28;20534;-70
2023/12/01 19:57:45;;;;;;;25.80;16.27;;;;;;;-0.87;100.00;100871.84;5263854;28;20024;-70
2023/12/01 20:00:17;;;;;;;24.17;15.40;;;;;;;-0.96;100.00;100871.13;5268357;28;20055;-71
2023/12/01 20:02:48;;;;;;;25.10;17.50;;;;;;;-1.07;100.00;100846.38;5264636;28;20059;-70
2023/12/01 20:05:20;;;;;;;25.30;16.30;;;;;;;-1.02;100.00;100861.75;5265306;28;20847;-71
2023/12/01 20:07:51;;;;;;;25.27;17.63;;;;;;;-1.10;100.00;100872.97;5266403;28;20028;-70
2023/12/01 20:10:22;;;;;;;23.57;16.77;;;;;;;-1.09;100.00;100868.69;5266252;28;20040;-71
2023/12/01 20:12:53;;;;;;;27.57;16.20;;;;;;;-1.18;100.00;100867.06;5264636;28;20066;-70
2023/12/01 20:15:25;;;;;;;25.37;16.67;;;;;;;-1.25;100.00;100870.56;5266044;28;20116;-70
2023/12/01 20:17:57;;;;;;;25.40;17.30;;;;;;;-1.22;100.00;100871.38;5267429;28;20028;-70
2023/12/01 20:20:28;;;;;;;24.63;15.93;;;;;;;-1.20;100.00;100878.25;5265763;28;20036;-71
2023/12/01 20:23:00;;;;;;;25.30;16.77;;;;;;;-1.10;100.00;100867.00;5267928;28;20028;-71
2023/12/01 20:25:31;;;;;;;26.13;16.70;;;;;;;-1.04;100.00;100877.19;5264542;28;20028;-71
2023/12/01 20:28:02;;;;;;;24.63;16.80;;;;;;;-1.02;100.00;100882.31;5265406;28;20062;-71
2023/12/01 20:30:34;;;;;;;26.47;16.73;;;;;;;-1.06;100.00;100876.34;5263295;28;20040;-71
2023/12/01 20:33:06;;;;;;;23.83;15.97;;;;;;;-0.91;100.00;100869.34;5259881;28;20028;-70
2023/12/01 20:35:38;;;;;;;27.00;18.07;;;;;;;-0.84;100.00;100876.13;5260249;28;20066;-70
2023/12/01 20:38:09;;;;;;;23.73;15.40;;;;;;;-0.84;100.00;100877.84;5263709;28;20083;-72
2023/12/01 20:40:40;;;;;;;28.40;19.13;;;;;;;-0.83;100.00;100877.81;5268127;28;20537;-71
2023/12/01 20:43:12;;;;;;;30.77;17.50;;;;;;;-0.77;100.00;100876.91;5270593;28;20035;-70
2023/12/01 20:45:43;;;;;;;26.53;17.30;;;;;;;-0.84;100.00;100875.28;5269411;28;20023;-70
2023/12/01 20:48:14;;;;;;;28.37;18.57;;;;;;;-0.78;100.00;100885.47;5271888;28;20036;-70
2023/12/01 20:50:45;;;;;;;26.43;17.10;;;;;;;-0.85;100.00;100882.13;5268574;28;20021;-71
2023/12/01 20:53:17;;;;;;;27.77;17.43;;;;;;;-0.81;100.00;100876.09;5270544;28;20045;-71
2023/12/01 20:55:48;;;;;;;27.83;17.43;;;;;;;-0.85;100.00;100879.56;5269377;28;20024;-71
2023/12/01 20:58:19;;;;;;;28.20;18.73;;;;;;;-0.89;100.00;100877.91;5272144;28;20051;-71
2023/12/01 21:00:51;;;;;;;26.63;16.87;;;;;;;-0.70;100.00;100882.81;5271229;28;20016;-70
2023/12/01 21:03:22;;;;;;;25.60;18.73;;;;;;;-0.82;100.00;100883.81;5268843;28;20040;-71
2023/12/01 21:05:53;;;;;;;27.90;19.03;;;;;;;-0.93;100.00;100878.78;5270544;28;20101;-70
2023/12/01 21:08:24;;;;;;;24.53;16.07;;;;;;;-0.80;100.00;100888.06;5270924;28;20032;-71
2023/12/01 21:10:56;;;;;;;25.10;16.47;;;;;;;-0.93;100.00;100871.09;5268268;28;20039;-71
2023/12/01 21:13:27;;;;;;;26.27;17.03;;;;;;;-0.89;100.00;100872.75;5268854;28;20045;-71
2023/12/01 21:15:58;;;;;;;27.63;18.43;;;;;;;-0.99;100.00;100872.00;5269867;28;20730;-71
2023/12/01 21:18:30;;;;;;;28.67;18.30;;;;;;;-0.96;100.00;100886.56;5268880;28;20035;-71
2023/12/01 21:21:01;;;;;;;25.77;16.80;;;;;;;-0.94;100.00;100874.53;5271113;28;20027;-70
2023/12/01 21:23:33;;;;;;;29.83;19.33;;;;;;;-0.86;100.00;100883.00;5269413;28;20082;-71
2023/12/01 21:26:05;;;;;;;26.30;18.23;;;;;;;-0.75;100.00;100891.44;5270612;28;20032;-71
2023/12/01 21:28:37;;;;;;;30.13;19.70;;;;;;;-0.75;100.00;100891.44;5268463;28;20029;-71
2023/12/01 21:31:10;;;;;;;29.00;17.97;;;;;;;-0.76;100.00;100884.59;5269142;28;20578;-71
2023/12/01 21:33:41;;;;;;;29.20;19.53;;;;;;;-0.74;100.00;100893.16;5240059;28;20040;-71
2023/12/01 21:36:13;;;;;;;29.03;19.10;;;;;;;-0.69;100.00;100894.81;5258547;28;20033;-72
2023/12/01 21:38:46;;;;;;;33.37;20.53;;;;;;;-0.63;100.00;100902.47;5271056;28;20218;-72
2023/12/01 21:41:17;;;;;;;29.87;19.47;;;;;;;-0.69;100.00;100894.81;5267501;28;20021;-72
2023/12/01 21:43:49;;;;;;;29.03;19.43;;;;;;;-0.86;100.00;100883.00;5268221;28;20122;-73
2023/12/01 21:46:20;;;;;;;25.90;18.47;;;;;;;-0.67;100.00;100880.22;5268835;28;20181;-71
2023/12/01 21:48:51;;;;;;;25.27;17.80;;;;;;;-0.65;100.00;100886.19;5274472;28;20024;-72
2023/12/01 21:51:23;;;;;;;28.20;18.07;;;;;;;-0.66;100.00;100884.47;5272734;28;20033;-71
2023/12/01 21:53:54;;;;;;;27.03;19.10;;;;;;;-0.54;100.00;100883.50;5270324;28;20040;-72
2023/12/01 21:56:25;;;;;;;26.00;18.50;;;;;;;-0.61;100.00;100887.84;5273749;28;20441;-72
2023/12/01 21:58:56;;;;;;;26.80;18.37;;;;;;;-0.57;100.00;100894.66;5279501;28;20032;-72
2023/12/01 22:01:29;;;;;;;25.13;17.60;;;;;;;-0.56;100.00;100901.50;5278078;28;20482;-73
2023/12/01 22:04:00;;;;;;;24.40;16.80;;;;;;;-0.58;100.00;100899.81;5268365;28;20961;-72
2023/12/01 22:06:31;;;;;;;26.17;17.53;;;;;;;-0.56;100.00;100898.09;5270679;28;20068;-71
2023/12/01 22:09:03;;;;;;;24.80;17.07;;;;;;;-0.69;100.00;100892.22;5271220;28;20517;-71
2023/12/01 22:11:39;;;;;;;27.33;17.50;;;;;;;-0.73;100.00;100900.00;5271816;28;20059;-72
2023/12/01 22:14:11;;;;;;;27.63;17.87;;;;;;;-0.66;100.00;100894.75;5270394;28;20039;-71
2023/12/01 22:16:42;;;;;;;25.60;17.40;;;;;;;-0.69;100.00;100902.53;5268043;28;20038;-71
2023/12/01 22:19:13;;;;;;;27.47;18.57;;;;;;;-0.86;100.00;100889.00;5270415;28;20471;-72
2023/12/01 22:21:44;;;;;;;26.87;18.20;;;;;;;-0.56;100.00;100911.78;5267808;28;20032;-71
2023/12/01 22:24:16;;;;;;;23.93;17.23;;;;;;;-0.64;100.00;100916.19;5270654;28;20028;-71
2023/12/01 22:26:47;;;;;;;28.37;18.63;;;;;;;-0.57;100.00;100906.66;5268363;28;20080;-71
2023/12/01 22:29:18;;;;;;;24.77;17.50;;;;;;;-0.65;100.00;100901.63;5270064;28;20039;-71
2023/12/01 22:31:50;;;;;;;26.70;18.13;;;;;;;-0.58;100.00;100910.13;5271962;28;20035;-71
2023/12/01 22:34:21;;;;;;;22.67;16.37;;;;;;;-0.60;100.00;100910.13;5270360;28;20032;-72
2023/12/01 22:36:54;;;;;;;26.33;16.50;;;;;;;-0.58;100.00;100910.97;5278930;28;20031;-72
2023/12/01 22:39:27;;;;;;;26.30;16.43;;;;;;;-0.61;100.00;100914.44;5268949;28;20032;-72
2023/12/01 22:41:58;;;;;;;26.73;17.57;;;;;;;-0.48;100.00;100906.56;5266612;28;20024;-72
2023/12/01 22:44:30;;;;;;;26.40;17.03;;;;;;;-0.55;100.00;100903.22;5282634;28;20031;-71
2023/12/01 22:47:02;;;;;;;24.40;18.03;;;;;;;-0.53;100.00;100910.91;5266477;28;20137;-71
2023/12/01 22:49:33;;;;;;;26.10;17.33;;;;;;;-0.51;100.00;100917.72;5267201;28;20738;-71
2023/12/01 22:52:04;;;;;;;27.10;17.73;;;;;;;-0.62;100.00;100923.03;5267225;28;20032;-71
2023/12/01 22:54:36;;;;;;;26.53;17.80;;;;;;;-0.47;100.00;100925.44;5266526;28;20573;-70
